createdAt,value
2023-04-12T00:00:36.241Z,1.93
2023-04-12T00:01:37.978Z,1.70
2023-04-12T00:02:40.297Z,1.70
2023-04-12T00:03:42.274Z,1.97
2023-04-12T00:04:44.986Z,1.80
2023-04-12T00:05:55.307Z,1.90
2023-04-12T00:06:58.231Z,2.10
2023-04-12T00:08:02.804Z,2.90
2023-04-12T00:09:04.964Z,2.33
2023-04-12T00:10:15.518Z,2.17
2023-04-12T00:11:25.100Z,2.13
2023-04-12T00:12:29.680Z,2.00
2023-04-12T00:13:31.485Z,1.80
2023-04-12T00:14:33.727Z,1.80
2023-04-12T00:15:41.515Z,2.10
2023-04-12T00:16:43.493Z,2.03
2023-04-12T00:17:46.221Z,1.70
2023-04-12T00:18:53.870Z,2.10
2023-04-12T00:19:56.188Z,1.70
2023-04-12T00:21:00.878Z,1.60
2023-04-12T00:22:28.529Z,1.80
2023-04-12T00:23:42.780Z,1.67
2023-04-12T00:24:45.069Z,1.73
2023-04-12T00:25:47.844Z,1.77
2023-04-12T00:26:49.947Z,1.67
2023-04-12T00:27:52.257Z,1.77
2023-04-12T00:28:57.904Z,1.60
2023-04-12T00:30:05.865Z,1.67
2023-04-12T00:32:27.559Z,1.67
2023-04-12T00:33:29.240Z,1.53
2023-04-12T00:34:37.670Z,1.70
2023-04-12T00:35:39.594Z,1.80
2023-04-12T00:36:42.763Z,1.83
2023-04-12T00:37:45.344Z,1.77
2023-04-12T00:38:47.755Z,1.60
2023-04-12T00:39:49.765Z,1.60
2023-04-12T00:40:52.168Z,1.43
2023-04-12T00:41:53.510Z,1.70
2023-04-12T00:42:54.912Z,1.67
2023-04-12T00:43:56.811Z,1.63
2023-04-12T00:44:58.396Z,1.80
2023-04-12T00:45:59.839Z,1.90
2023-04-12T00:47:01.897Z,1.77
2023-04-12T00:48:05.493Z,1.90
2023-04-12T00:49:07.219Z,1.70
2023-04-12T00:50:09.281Z,1.80
2023-04-12T00:51:10.661Z,1.80
2023-04-12T00:52:14.751Z,1.60
2023-04-12T00:53:17.628Z,1.63
2023-04-12T00:54:20.310Z,2.27
2023-04-12T00:55:21.842Z,1.90
2023-04-12T00:56:24.363Z,2.10
2023-04-12T00:57:25.677Z,1.90
2023-04-12T00:58:27.256Z,2.10
2023-04-12T00:59:28.777Z,1.60
2023-04-12T01:00:30.140Z,1.60
2023-04-12T01:01:32.084Z,1.53
2023-04-12T01:02:34.738Z,1.80
2023-04-12T01:03:42.700Z,1.83
2023-04-12T01:04:45.821Z,1.90
2023-04-12T01:05:58.220Z,1.80
2023-04-12T01:07:10.014Z,1.90
2023-04-12T01:08:12.140Z,1.90
2023-04-12T01:09:33.436Z,1.90
2023-04-12T01:10:41.592Z,2.10
2023-04-12T01:11:51.537Z,2.30
2023-04-12T01:13:11.809Z,1.97
2023-04-12T01:14:19.984Z,2.03
2023-04-12T01:15:24.236Z,2.40
2023-04-12T01:16:26.401Z,1.60
2023-04-12T01:17:29.895Z,2.20
2023-04-12T01:18:34.237Z,1.83
2023-04-12T01:19:39.410Z,1.90
2023-04-12T01:20:44.834Z,1.90
2023-04-12T01:21:53.979Z,1.93
2023-04-12T01:23:14.738Z,1.77
2023-04-12T01:24:16.164Z,1.93
2023-04-12T01:25:24.222Z,1.80
2023-04-12T01:26:34.729Z,2.53
2023-04-12T01:27:48.503Z,1.93
2023-04-12T01:28:52.630Z,2.00
2023-04-12T01:29:56.002Z,2.10
2023-04-12T01:31:02.020Z,1.83
2023-04-12T01:32:03.794Z,1.80
2023-04-12T01:33:06.694Z,1.93
2023-04-12T01:34:09.382Z,2.00
2023-04-12T01:35:11.580Z,2.17
2023-04-12T01:36:16.951Z,1.80
2023-04-12T01:37:19.819Z,2.27
2023-04-12T01:38:21.551Z,2.00
2023-04-12T01:39:22.907Z,2.10
2023-04-12T01:40:25.039Z,2.00
2023-04-12T01:41:26.738Z,2.33
2023-04-12T01:42:28.458Z,1.83
2023-04-12T01:43:30.714Z,2.00
2023-04-12T01:44:32.232Z,1.73
2023-04-12T01:45:33.842Z,2.00
2023-04-12T01:46:37.442Z,1.90
2023-04-12T01:47:39.270Z,1.77
2023-04-12T01:48:50.265Z,2.03
2023-04-12T01:50:06.544Z,2.03
2023-04-12T01:51:11.265Z,2.00
2023-04-12T01:52:14.058Z,2.10
2023-04-12T01:53:23.340Z,2.10
2023-04-12T01:54:27.337Z,1.73
2023-04-12T01:55:29.851Z,1.90
2023-04-12T01:56:34.868Z,2.10
2023-04-12T01:57:37.523Z,1.57
2023-04-12T01:58:39.598Z,1.70
2023-04-12T01:59:41.890Z,2.07
2023-04-12T02:00:44.815Z,2.00
2023-04-12T02:01:47.031Z,1.70
2023-04-12T02:02:48.666Z,2.20
2023-04-12T02:03:52.088Z,2.00
2023-04-12T02:04:53.955Z,1.73
2023-04-12T02:05:56.555Z,1.77
2023-04-12T02:06:57.896Z,2.47
2023-04-12T02:08:01.287Z,1.80
2023-04-12T02:09:03.313Z,1.63
2023-04-12T02:10:04.887Z,1.97
2023-04-12T02:11:11.858Z,2.03
2023-04-12T02:12:13.376Z,2.27
2023-04-12T02:13:14.697Z,1.90
2023-04-12T02:14:16.094Z,1.90
2023-04-12T02:15:18.322Z,2.40
2023-04-12T02:16:20.560Z,1.93
2023-04-12T02:17:22.306Z,2.10
2023-04-12T02:18:24.342Z,1.87
2023-04-12T02:19:25.790Z,2.10
2023-04-12T02:20:28.018Z,2.13
2023-04-12T02:21:29.337Z,1.50
2023-04-12T02:22:30.966Z,2.43
2023-04-12T02:23:32.284Z,2.50
2023-04-12T02:24:33.667Z,2.30
2023-04-12T02:25:35.980Z,2.50
2023-04-12T02:26:38.360Z,2.13
2023-04-12T02:27:41.750Z,2.23
2023-04-12T02:28:44.198Z,2.40
2023-04-12T02:29:48.043Z,2.13
2023-04-12T02:30:53.469Z,2.10
2023-04-12T02:31:56.259Z,2.10
2023-04-12T02:33:00.266Z,2.17
2023-04-12T02:34:05.970Z,2.20
2023-04-12T02:35:08.474Z,2.50
2023-04-12T02:36:11.426Z,1.90
2023-04-12T02:37:17.635Z,2.03
2023-04-12T02:38:19.146Z,2.13
2023-04-12T02:39:21.972Z,2.30
2023-04-12T02:40:25.025Z,2.47
2023-04-12T02:41:26.438Z,1.83
2023-04-12T02:42:28.157Z,1.90
2023-04-12T02:43:29.522Z,2.43
2023-04-12T02:44:34.586Z,2.57
2023-04-12T02:45:45.278Z,2.00
2023-04-12T02:46:46.650Z,1.67
2023-04-12T02:47:49.233Z,1.90
2023-04-12T02:48:52.724Z,2.10
2023-04-12T02:49:56.257Z,1.70
2023-04-12T02:50:58.481Z,2.10
2023-04-12T02:52:02.410Z,2.47
2023-04-12T02:53:11.185Z,2.13
2023-04-12T02:54:13.592Z,2.20
2023-04-12T02:55:27.073Z,2.47
2023-04-12T02:56:29.877Z,2.30
2023-04-12T02:57:38.717Z,2.00
2023-04-12T02:58:41.635Z,2.20
2023-04-12T02:59:45.512Z,1.80
2023-04-12T03:01:13.135Z,2.40
2023-04-12T03:02:32.384Z,2.43
2023-04-12T03:03:37.647Z,2.20
2023-04-12T03:04:53.236Z,2.00
2023-04-12T03:05:58.444Z,2.40
2023-04-12T03:06:59.805Z,2.30
2023-04-12T03:08:07.604Z,2.20
2023-04-12T03:09:15.927Z,2.60
2023-04-12T03:10:17.734Z,2.07
2023-04-12T03:11:25.094Z,1.97
2023-04-12T03:12:26.770Z,2.57
2023-04-12T03:13:57.789Z,2.20
2023-04-12T03:14:59.353Z,2.63
2023-04-12T03:16:19.006Z,2.00
2023-04-12T03:17:20.756Z,2.07
2023-04-12T03:18:23.456Z,2.40
2023-04-12T03:19:28.150Z,1.87
2023-04-12T03:20:30.220Z,2.57
2023-04-12T03:21:36.886Z,1.80
2023-04-12T03:22:41.726Z,1.70
2023-04-12T03:23:44.665Z,1.90
2023-04-12T03:24:52.688Z,1.70
2023-04-12T03:25:56.079Z,2.00
2023-04-12T03:27:20.323Z,1.57
2023-04-12T03:28:23.347Z,1.70
2023-04-12T03:29:26.936Z,2.13
2023-04-12T03:30:29.380Z,2.33
2023-04-12T03:31:32.217Z,1.57
2023-04-12T03:32:39.375Z,1.67
2023-04-12T03:33:42.346Z,1.90
2023-04-12T03:34:53.672Z,1.83
2023-04-12T03:35:59.325Z,1.60
2023-04-12T03:37:02.305Z,1.70
2023-04-12T03:38:13.160Z,1.80
2023-04-12T03:39:16.784Z,1.40
2023-04-12T03:40:20.042Z,2.07
2023-04-12T03:41:30.109Z,1.80
2023-04-12T03:42:33.942Z,1.60
2023-04-12T03:43:53.281Z,1.70
2023-04-12T03:44:54.791Z,1.80
2023-04-12T03:45:57.276Z,1.73
2023-04-12T03:47:00.209Z,1.60
2023-04-12T03:48:07.412Z,1.70
2023-04-12T03:49:16.605Z,1.90
2023-04-12T03:50:19.744Z,1.73
2023-04-12T03:51:30.457Z,1.80
2023-04-12T03:52:35.978Z,1.43
2023-04-12T03:53:41.437Z,1.80
2023-04-12T03:54:47.133Z,1.70
2023-04-12T03:55:56.068Z,1.63
2023-04-12T03:57:00.137Z,1.50
2023-04-12T03:58:13.450Z,2.33
2023-04-12T03:59:17.801Z,1.50
2023-04-12T04:00:20.683Z,1.43
2023-04-12T04:01:39.010Z,1.63
2023-04-12T04:02:40.904Z,1.60
2023-04-12T04:03:44.941Z,1.40
2023-04-12T04:04:54.237Z,1.70
2023-04-12T04:06:01.737Z,1.60
2023-04-12T04:07:06.105Z,1.53
2023-04-12T04:08:14.744Z,1.67
2023-04-12T04:09:26.581Z,1.60
2023-04-12T04:10:28.322Z,1.60
2023-04-12T04:11:31.851Z,1.60
2023-04-12T04:12:39.890Z,1.77
2023-04-12T04:13:46.497Z,1.50
2023-04-12T04:14:52.666Z,1.50
2023-04-12T04:16:04.599Z,1.47
2023-04-12T04:17:06.717Z,1.40
2023-04-12T04:18:09.179Z,1.90
2023-04-12T04:19:12.588Z,1.60
2023-04-12T04:20:17.935Z,1.60
2023-04-12T04:21:23.789Z,1.47
2023-04-12T04:22:32.502Z,1.70
2023-04-12T04:23:39.183Z,1.60
2023-04-12T04:24:41.352Z,1.60
2023-04-12T04:25:43.057Z,1.73
2023-04-12T04:26:47.857Z,1.90
2023-04-12T04:27:59.580Z,1.77
2023-04-12T04:29:04.682Z,1.53
2023-04-12T04:30:11.988Z,1.73
2023-04-12T04:31:18.482Z,1.73
2023-04-12T04:32:25.849Z,1.70
2023-04-12T04:33:31.570Z,1.57
2023-04-12T04:34:35.966Z,1.67
2023-04-12T04:35:44.857Z,1.90
2023-04-12T04:37:01.663Z,1.50
2023-04-12T04:38:03.014Z,1.50
2023-04-12T04:39:05.163Z,1.60
2023-04-12T04:40:12.557Z,1.93
2023-04-12T04:41:13.983Z,1.53
2023-04-12T04:42:24.440Z,1.50
2023-04-12T04:43:39.797Z,1.53
2023-04-12T04:44:41.304Z,1.60
2023-04-12T04:45:46.314Z,1.80
2023-04-12T04:46:48.706Z,1.50
2023-04-12T04:47:51.613Z,1.90
2023-04-12T04:48:55.134Z,1.80
2023-04-12T04:49:59.881Z,1.57
2023-04-12T04:51:02.704Z,1.70
2023-04-12T04:52:04.537Z,1.33
2023-04-12T04:53:06.233Z,1.80
2023-04-12T04:54:08.283Z,1.30
2023-04-12T04:55:13.044Z,1.70
2023-04-12T04:56:18.760Z,1.67
2023-04-12T04:57:26.713Z,2.00
2023-04-12T04:58:31.153Z,1.90
2023-04-12T04:59:33.944Z,1.53
2023-04-12T05:00:48.797Z,1.60
2023-04-12T05:01:52.306Z,1.50
2023-04-12T05:02:54.028Z,1.90
2023-04-12T05:04:02.034Z,2.00
2023-04-12T05:05:04.310Z,2.10
2023-04-12T05:06:07.439Z,1.90
2023-04-12T05:07:09.594Z,1.80
2023-04-12T05:08:11.224Z,1.60
2023-04-12T05:09:12.615Z,2.27
2023-04-12T05:10:20.927Z,1.93
2023-04-12T05:11:22.442Z,1.70
2023-04-12T05:12:25.257Z,1.87
2023-04-12T05:13:30.291Z,1.90
2023-04-12T05:14:44.528Z,2.20
2023-04-12T05:15:49.058Z,1.97
2023-04-12T05:16:50.617Z,1.80
2023-04-12T05:17:58.542Z,1.97
2023-04-12T05:19:00.122Z,1.70
2023-04-12T05:20:01.670Z,1.90
2023-04-12T05:21:04.291Z,1.60
2023-04-12T05:22:06.414Z,1.93
2023-04-12T05:23:08.030Z,1.67
2023-04-12T05:24:09.428Z,1.97
2023-04-12T05:25:12.751Z,1.97
2023-04-12T05:26:21.666Z,1.70
2023-04-12T05:27:27.734Z,1.80
2023-04-12T05:28:29.249Z,1.93
2023-04-12T05:29:30.921Z,2.13
2023-04-12T05:30:32.510Z,1.80
2023-04-12T05:31:34.122Z,2.03
2023-04-12T05:32:39.460Z,1.90
2023-04-12T05:33:40.925Z,2.43
2023-04-12T05:34:44.032Z,1.90
2023-04-12T05:35:46.082Z,1.87
2023-04-12T05:36:47.487Z,1.87
2023-04-12T05:37:49.110Z,1.93
2023-04-12T05:38:53.082Z,1.90
2023-04-12T05:39:54.725Z,2.20
2023-04-12T05:40:56.364Z,2.00
2023-04-12T05:42:01.600Z,2.70
2023-04-12T05:43:03.479Z,2.00
2023-04-12T05:44:06.413Z,2.10
2023-04-12T05:45:08.153Z,2.00
2023-04-12T05:46:11.396Z,2.50
2023-04-12T05:47:12.975Z,2.03
2023-04-12T05:48:14.506Z,2.00
2023-04-12T05:49:16.108Z,1.90
2023-04-12T05:50:17.479Z,2.20
2023-04-12T05:51:25.174Z,1.97
2023-04-12T05:52:29.641Z,2.07
2023-04-12T05:53:32.702Z,2.03
2023-04-12T05:54:37.165Z,2.17
2023-04-12T05:55:39.208Z,2.03
2023-04-12T05:56:41.293Z,2.20
2023-04-12T05:57:44.298Z,2.00
2023-04-12T05:58:47.148Z,2.27
2023-04-12T05:59:48.715Z,2.00
2023-04-12T06:00:50.132Z,2.50
2023-04-12T06:01:51.583Z,2.20
2023-04-12T06:02:54.894Z,2.43
2023-04-12T06:03:56.678Z,2.10
2023-04-12T06:04:58.309Z,2.27
2023-04-12T06:06:02.440Z,2.13
2023-04-12T06:07:05.572Z,2.53
2023-04-12T06:08:13.370Z,2.30
2023-04-12T06:09:16.329Z,2.37
2023-04-12T06:10:18.446Z,2.43
2023-04-12T06:11:24.282Z,2.07
2023-04-12T06:12:26.434Z,2.00
2023-04-12T06:13:27.904Z,2.27
2023-04-12T06:14:29.672Z,2.30
2023-04-12T06:15:32.042Z,2.50
2023-04-12T06:16:37.191Z,2.30
2023-04-12T06:17:38.832Z,2.77
2023-04-12T06:18:40.229Z,2.90
2023-04-12T06:19:41.606Z,2.83
2023-04-12T06:20:44.274Z,3.40
2023-04-12T06:21:45.644Z,2.83
2023-04-12T06:22:46.997Z,2.70
2023-04-12T06:23:51.081Z,2.47
2023-04-12T06:24:52.827Z,2.40
2023-04-12T06:25:55.113Z,2.50
2023-04-12T06:26:56.631Z,2.40
2023-04-12T06:27:57.940Z,2.50
2023-04-12T06:29:00.423Z,2.30
2023-04-12T06:30:01.801Z,2.50
2023-04-12T06:31:06.894Z,2.30
2023-04-12T06:32:12.087Z,1.93
2023-04-12T06:33:13.546Z,2.33
2023-04-12T06:34:15.928Z,2.67
2023-04-12T06:35:20.146Z,2.70
2023-04-12T06:36:21.489Z,2.40
2023-04-12T06:37:22.870Z,1.83
2023-04-12T06:38:24.227Z,2.00
2023-04-12T06:39:25.648Z,2.37
2023-04-12T06:40:27.026Z,2.17
2023-04-12T06:41:28.356Z,2.03
2023-04-12T06:42:38.639Z,2.57
2023-04-12T06:43:40.136Z,2.67
2023-04-12T06:44:41.669Z,2.17
2023-04-12T06:45:43.004Z,2.27
2023-04-12T06:46:44.673Z,2.50
2023-04-12T06:47:47.304Z,2.60
2023-04-12T06:48:48.741Z,2.47
2023-04-12T06:49:54.796Z,2.80
2023-04-12T06:50:57.281Z,2.40
2023-04-12T06:51:58.587Z,2.40
2023-04-12T06:52:59.929Z,2.30
2023-04-12T06:54:01.454Z,2.53
2023-04-12T06:55:02.937Z,2.40
2023-04-12T06:56:04.827Z,2.60
2023-04-12T06:57:11.006Z,2.40
2023-04-12T06:58:12.337Z,2.30
2023-04-12T06:59:13.642Z,2.53
2023-04-12T07:00:15.136Z,2.77
2023-04-12T07:01:17.735Z,2.87
2023-04-12T07:02:19.431Z,3.40
2023-04-12T07:03:20.960Z,3.20
2023-04-12T07:04:22.516Z,2.63
2023-04-12T07:05:23.924Z,2.77
2023-04-12T07:06:26.241Z,2.53
2023-04-12T07:07:27.807Z,2.43
2023-04-12T07:08:30.278Z,2.30
2023-04-12T07:09:32.475Z,2.40
2023-04-12T07:10:33.816Z,2.30
2023-04-12T07:11:35.543Z,2.60
2023-04-12T07:12:36.937Z,2.63
2023-04-12T07:13:38.241Z,2.33
2023-04-12T07:14:40.052Z,2.30
2023-04-12T07:15:41.480Z,2.50
2023-04-12T07:16:43.423Z,2.57
2023-04-12T07:17:44.882Z,2.10
2023-04-12T07:18:46.453Z,2.33
2023-04-12T07:19:48.896Z,2.53
2023-04-12T07:20:52.943Z,2.70
2023-04-12T07:21:54.239Z,2.80
2023-04-12T07:22:55.685Z,2.47
2023-04-12T07:23:56.982Z,2.30
2023-04-12T07:24:58.393Z,2.50
2023-04-12T07:26:00.859Z,2.20
2023-04-12T07:27:02.196Z,2.50
2023-04-12T07:28:03.627Z,2.00
2023-04-12T07:29:04.948Z,2.50
2023-04-12T07:30:06.586Z,1.90
2023-04-12T07:31:08.063Z,2.10
2023-04-12T07:32:10.752Z,2.60
2023-04-12T07:33:19.093Z,2.27
2023-04-12T07:34:21.258Z,2.33
2023-04-12T07:35:23.097Z,1.90
2023-04-12T07:36:24.537Z,2.37
2023-04-12T07:37:26.167Z,2.10
2023-04-12T07:38:27.520Z,2.13
2023-04-12T07:39:31.922Z,2.67
2023-04-12T07:40:33.343Z,1.90
2023-04-12T07:41:34.644Z,1.83
2023-04-12T07:42:36.007Z,1.73
2023-04-12T07:43:37.335Z,2.53
2023-04-12T07:44:39.015Z,1.70
2023-04-12T07:45:40.657Z,2.10
2023-04-12T07:46:42.046Z,2.00
2023-04-12T07:47:43.426Z,2.00
2023-04-12T07:48:44.842Z,1.70
2023-04-12T07:49:46.314Z,1.70
2023-04-12T07:50:47.755Z,1.80
2023-04-12T07:51:49.139Z,1.90
2023-04-12T07:52:50.471Z,2.10
2023-04-12T07:53:52.022Z,2.00
2023-04-12T07:54:54.545Z,1.53
2023-04-12T07:55:56.306Z,1.93
2023-04-12T07:57:01.144Z,1.60
2023-04-12T07:58:02.492Z,1.83
2023-04-12T07:59:04.003Z,1.63
2023-04-12T08:00:05.887Z,1.80
2023-04-12T08:01:15.350Z,1.97
2023-04-12T08:02:24.550Z,2.00
2023-04-12T08:03:26.440Z,2.03
2023-04-12T08:04:30.875Z,1.83
2023-04-12T08:05:32.378Z,1.47
2023-04-12T08:06:34.457Z,1.77
2023-04-12T08:07:35.955Z,1.90
2023-04-12T08:08:37.278Z,1.77
2023-04-12T08:09:38.669Z,1.93
2023-04-12T08:10:40.367Z,1.90
2023-04-12T08:11:41.732Z,1.60
2023-04-12T08:12:43.068Z,1.70
2023-04-12T08:13:44.448Z,1.60
2023-04-12T08:14:45.787Z,1.70
2023-04-12T08:15:47.722Z,1.70
2023-04-12T08:16:49.361Z,1.70
2023-04-12T08:17:51.118Z,1.63
2023-04-12T08:18:52.785Z,1.97
2023-04-12T08:19:54.180Z,2.03
2023-04-12T08:20:56.199Z,1.80
2023-04-12T08:21:57.663Z,1.73
2023-04-12T08:22:59.082Z,1.70
2023-04-12T08:24:00.621Z,1.80
2023-04-12T08:25:02.030Z,1.70
2023-04-12T08:26:03.713Z,1.70
2023-04-12T08:27:05.258Z,1.70
2023-04-12T08:28:09.843Z,1.60
2023-04-12T08:29:11.301Z,1.53
2023-04-12T08:30:12.945Z,1.70
2023-04-12T08:31:14.856Z,1.63
2023-04-12T08:32:16.557Z,1.80
2023-04-12T08:33:17.951Z,1.57
2023-04-12T08:34:20.454Z,2.00
2023-04-12T08:35:22.864Z,1.70
2023-04-12T08:36:24.185Z,1.90
2023-04-12T08:37:25.848Z,1.50
2023-04-12T08:38:41.360Z,2.13
2023-04-12T08:39:46.250Z,1.50
2023-04-12T08:40:47.640Z,1.83
2023-04-12T08:41:49.320Z,1.80
2023-04-12T08:42:52.569Z,1.77
2023-04-12T08:43:57.885Z,1.50
2023-04-12T08:44:59.426Z,1.80
2023-04-12T08:46:01.203Z,1.73
2023-04-12T08:47:03.321Z,1.90
2023-04-12T08:48:05.903Z,1.47
2023-04-12T08:49:07.609Z,1.80
2023-04-12T08:50:10.206Z,1.67
2023-04-12T08:51:13.245Z,2.30
2023-04-12T08:52:15.536Z,1.90
2023-04-12T08:53:16.842Z,1.97
2023-04-12T08:54:18.192Z,1.90
2023-04-12T08:55:19.767Z,1.80
2023-04-12T08:56:22.696Z,1.67
2023-04-12T08:57:24.224Z,1.73
2023-04-12T08:58:25.682Z,1.80
2023-04-12T08:59:27.989Z,2.10
2023-04-12T09:00:29.358Z,2.53
2023-04-12T09:01:30.918Z,2.37
2023-04-12T09:02:32.452Z,2.70
2023-04-12T09:03:34.582Z,2.20
2023-04-12T09:04:47.232Z,2.00
2023-04-12T09:05:48.612Z,1.93
2023-04-12T09:06:49.941Z,1.57
2023-04-12T09:07:51.217Z,1.70
2023-04-12T09:08:53.398Z,1.70
2023-04-12T09:09:54.933Z,1.80
2023-04-12T09:10:56.381Z,1.87
2023-04-12T09:12:06.620Z,1.80
2023-04-12T09:13:08.764Z,2.40
2023-04-12T09:14:23.115Z,2.00
2023-04-12T09:15:24.478Z,1.73
2023-04-12T09:16:39.592Z,1.60
2023-04-12T09:17:42.359Z,3.33
2023-04-12T09:18:51.163Z,2.30
2023-04-12T09:19:53.459Z,1.60
2023-04-12T09:21:08.136Z,1.70
2023-04-12T09:22:09.600Z,1.57
2023-04-12T09:23:18.258Z,1.90
2023-04-12T09:24:19.697Z,1.90
2023-04-12T09:25:40.443Z,1.73
2023-04-12T09:26:41.920Z,2.00
2023-04-12T09:27:49.959Z,1.83
2023-04-12T09:28:51.285Z,1.83
2023-04-12T09:30:06.125Z,2.07
2023-04-12T09:31:15.527Z,1.93
2023-04-12T09:32:24.587Z,1.83
2023-04-12T09:33:36.340Z,2.30
2023-04-12T09:34:38.771Z,1.97
2023-04-12T09:35:40.789Z,2.00
2023-04-12T09:36:42.748Z,1.80
2023-04-12T09:37:44.116Z,1.50
2023-04-12T09:38:58.824Z,3.90
2023-04-12T09:40:01.983Z,3.47
2023-04-12T09:41:21.500Z,2.00
2023-04-12T09:42:32.505Z,2.30
2023-04-12T09:43:38.586Z,2.23
2023-04-12T09:44:40.391Z,2.00
2023-04-12T09:45:42.166Z,1.87
2023-04-12T09:46:52.654Z,2.10
2023-04-12T09:47:55.960Z,2.20
2023-04-12T09:49:00.663Z,2.00
2023-04-12T09:50:04.532Z,2.07
2023-04-12T09:51:06.406Z,2.47
2023-04-12T09:52:08.688Z,1.93
2023-04-12T09:53:15.720Z,2.00
2023-04-12T09:54:17.401Z,2.00
2023-04-12T09:55:21.108Z,2.20
2023-04-12T09:56:23.022Z,2.20
2023-04-12T09:57:24.910Z,1.93
2023-04-12T09:58:27.134Z,2.00
2023-04-12T09:59:29.953Z,2.00
2023-04-12T10:00:31.927Z,2.43
2023-04-12T10:01:38.807Z,2.33
2023-04-12T10:02:42.705Z,2.60
2023-04-12T10:03:45.371Z,2.37
2023-04-12T10:04:48.317Z,2.30
2023-04-12T10:05:49.670Z,2.30
2023-04-12T10:06:51.202Z,2.63
2023-04-12T10:07:53.018Z,2.37
2023-04-12T10:08:55.005Z,2.30
2023-04-12T10:09:58.119Z,2.60
2023-04-12T10:11:00.355Z,2.33
2023-04-12T10:12:03.171Z,2.50
2023-04-12T10:13:05.900Z,2.60
2023-04-12T10:14:07.453Z,2.70
2023-04-12T10:15:17.886Z,2.60
2023-04-12T10:16:21.159Z,2.57
2023-04-12T10:17:22.800Z,3.03
2023-04-12T10:18:25.962Z,3.23
2023-04-12T10:19:29.036Z,3.03
2023-04-12T10:20:30.542Z,2.57
2023-04-12T10:21:32.627Z,2.80
2023-04-12T10:22:34.369Z,2.50
2023-04-12T10:23:35.748Z,2.10
2023-04-12T10:24:38.427Z,2.37
2023-04-12T10:25:42.746Z,2.87
2023-04-12T10:26:44.430Z,2.47
2023-04-12T10:27:46.475Z,2.83
2023-04-12T10:29:07.898Z,2.83
2023-04-12T10:30:19.290Z,2.50
2023-04-12T10:31:27.164Z,2.47
2023-04-12T10:32:28.662Z,3.87
2023-04-12T10:33:33.560Z,4.23
2023-04-12T10:34:42.296Z,3.07
2023-04-12T10:36:08.601Z,2.60
2023-04-12T10:37:10.183Z,2.50
2023-04-12T10:38:11.506Z,2.80
2023-04-12T10:39:14.608Z,2.33
2023-04-12T10:40:19.425Z,2.40
2023-04-12T10:41:22.120Z,2.50
2023-04-12T10:42:23.677Z,3.03
2023-04-12T10:43:28.898Z,2.33
2023-04-12T10:44:30.441Z,2.63
2023-04-12T10:45:31.811Z,2.73
2023-04-12T10:46:45.540Z,2.87
2023-04-12T10:47:50.008Z,2.20
2023-04-12T10:48:52.192Z,2.37
2023-04-12T10:50:12.373Z,2.43
2023-04-12T10:51:15.714Z,2.73
2023-04-12T10:52:17.106Z,2.57
2023-04-12T10:53:25.277Z,2.40
2023-04-12T10:54:26.756Z,2.70
2023-04-12T10:55:29.798Z,2.70
2023-04-12T10:56:34.297Z,2.40
2023-04-12T10:57:43.516Z,2.40
2023-04-12T10:58:48.025Z,2.23
2023-04-12T10:59:59.480Z,2.80
2023-04-12T11:01:01.080Z,2.50
2023-04-12T11:02:09.624Z,2.97
2023-04-12T11:03:12.836Z,3.00
2023-04-12T11:04:20.307Z,2.97
2023-04-12T11:06:12.714Z,2.53
2023-04-12T11:07:41.804Z,2.53
2023-04-12T11:09:01.789Z,2.40
2023-04-12T11:10:12.231Z,2.43
2023-04-12T11:11:20.905Z,2.50
2023-04-12T11:12:26.525Z,2.67
2023-04-12T11:13:28.581Z,2.60
2023-04-12T11:14:33.800Z,2.37
2023-04-12T11:15:35.638Z,2.33
2023-04-12T11:16:56.935Z,2.40
2023-04-12T11:18:00.215Z,2.30
2023-04-12T11:19:02.241Z,2.37
2023-04-12T11:20:04.778Z,2.07
2023-04-12T11:21:06.520Z,2.00
2023-04-12T11:22:09.064Z,2.37
2023-04-12T11:23:11.752Z,1.90
2023-04-12T11:24:13.928Z,2.20
2023-04-12T11:25:16.774Z,2.07
2023-04-12T11:26:22.072Z,2.20
2023-04-12T11:27:24.213Z,2.47
2023-04-12T11:28:29.599Z,2.40
2023-04-12T11:29:34.960Z,2.60
2023-04-12T11:30:36.308Z,2.33
2023-04-12T11:31:40.849Z,2.60
2023-04-12T11:32:44.533Z,2.10
2023-04-12T11:33:45.873Z,1.90
2023-04-12T11:34:47.674Z,2.27
2023-04-12T11:35:49.004Z,1.90
2023-04-12T11:36:53.732Z,2.10
2023-04-12T11:37:55.608Z,1.97
2023-04-12T11:38:57.285Z,2.07
2023-04-12T11:39:59.090Z,2.30
2023-04-12T11:41:00.715Z,1.73
2023-04-12T11:42:05.108Z,2.10
2023-04-12T11:43:06.714Z,1.70
2023-04-12T11:44:09.277Z,2.00
2023-04-12T11:45:16.949Z,1.90
2023-04-12T11:46:19.745Z,1.73
2023-04-12T11:47:22.176Z,1.80
2023-04-12T11:48:23.607Z,1.80
2023-04-12T11:49:25.118Z,1.87
2023-04-12T11:50:30.736Z,1.77
2023-04-12T11:51:32.771Z,1.87
2023-04-12T11:52:34.263Z,1.60
2023-04-12T11:53:35.639Z,1.90
2023-04-12T11:54:37.117Z,1.90
2023-04-12T11:55:38.521Z,2.37
2023-04-12T11:56:40.412Z,2.07
2023-04-12T11:57:41.781Z,2.17
2023-04-12T11:58:46.531Z,2.00
2023-04-12T11:59:48.691Z,2.03
2023-04-12T12:00:50.497Z,1.67
2023-04-12T12:01:52.036Z,1.83
2023-04-12T12:03:06.831Z,1.90
2023-04-12T12:04:09.060Z,1.90
2023-04-12T12:05:11.173Z,1.80
2023-04-12T12:06:14.026Z,1.83
2023-04-12T12:07:16.665Z,1.77
2023-04-12T12:08:18.542Z,1.70
2023-04-12T12:09:20.673Z,2.07
2023-04-12T12:10:36.622Z,1.97
2023-04-12T12:11:43.527Z,1.73
2023-04-12T12:12:44.934Z,1.70
2023-04-12T12:13:50.180Z,2.23
2023-04-12T12:14:51.742Z,2.27
2023-04-12T12:15:53.111Z,2.00
2023-04-12T12:16:58.490Z,1.70
2023-04-12T12:18:02.079Z,1.80
2023-04-12T12:19:04.119Z,1.77
2023-04-12T12:20:05.776Z,1.67
2023-04-12T12:21:10.794Z,1.67
2023-04-12T12:22:15.184Z,1.70
2023-04-12T12:23:29.672Z,1.90
2023-04-12T12:24:31.087Z,2.07
2023-04-12T12:25:32.442Z,1.50
2023-04-12T12:26:35.666Z,1.50
2023-04-12T12:27:37.975Z,1.50
2023-04-12T12:28:39.702Z,1.63
2023-04-12T12:29:41.061Z,2.00
2023-04-12T12:30:42.432Z,1.57
2023-04-12T12:31:49.956Z,1.40
2023-04-12T12:32:54.346Z,1.80
2023-04-12T12:33:59.587Z,1.70
2023-04-12T12:35:01.315Z,1.70
2023-04-12T12:36:02.658Z,1.60
2023-04-12T12:37:07.124Z,1.80
2023-04-12T12:38:09.948Z,1.70
2023-04-12T12:39:12.518Z,1.50
2023-04-12T12:40:14.350Z,1.53
2023-04-12T12:41:16.573Z,1.47
2023-04-12T12:42:17.908Z,1.90
2023-04-12T12:43:20.583Z,1.47
2023-04-12T12:44:24.806Z,1.60
2023-04-12T12:45:28.755Z,1.87
2023-04-12T12:46:44.481Z,1.87
2023-04-12T12:47:59.101Z,1.80
2023-04-12T12:49:00.863Z,1.70
2023-04-12T12:50:02.364Z,1.57
2023-04-12T12:51:04.011Z,1.70
2023-04-12T12:52:05.720Z,1.53
2023-04-12T12:53:08.374Z,1.87
2023-04-12T12:54:09.923Z,1.63
2023-04-12T12:55:11.331Z,1.63
2023-04-12T12:56:13.703Z,1.53
2023-04-12T12:57:18.240Z,1.80
2023-04-12T12:58:22.673Z,1.47
2023-04-12T12:59:25.968Z,1.60
2023-04-12T13:00:28.399Z,1.77
2023-04-12T13:01:29.771Z,1.60
2023-04-12T13:02:31.429Z,1.47
2023-04-12T13:03:33.708Z,1.83
2023-04-12T13:04:35.718Z,1.80
2023-04-12T13:05:37.519Z,1.50
2023-04-12T13:06:39.272Z,2.40
2023-04-12T13:07:40.757Z,1.97
2023-04-12T13:08:42.080Z,2.20
2023-04-12T13:09:45.168Z,1.93
2023-04-12T13:10:46.572Z,1.63
2023-04-12T13:11:48.019Z,1.80
2023-04-12T13:12:49.529Z,1.70
2023-04-12T13:13:50.836Z,1.60
2023-04-12T13:14:57.906Z,1.60
2023-04-12T13:16:04.790Z,1.70
2023-04-12T13:17:06.201Z,1.47
2023-04-12T13:18:07.665Z,1.67
2023-04-12T13:19:09.092Z,1.67
2023-04-12T13:20:10.620Z,1.70
2023-04-12T13:21:12.031Z,1.53
2023-04-12T13:22:13.731Z,1.40
2023-04-12T13:23:15.248Z,1.67
2023-04-12T13:24:16.530Z,1.67
2023-04-12T13:25:19.827Z,1.93
2023-04-12T13:26:21.361Z,1.47
2023-04-12T13:27:22.743Z,1.73
2023-04-12T13:28:24.042Z,1.70
2023-04-12T13:29:25.431Z,1.50
2023-04-12T13:30:26.839Z,1.70
2023-04-12T13:31:28.196Z,1.60
2023-04-12T13:32:29.785Z,1.60
2023-04-12T13:33:31.175Z,1.40
2023-04-12T13:34:32.535Z,1.77
2023-04-12T13:35:33.977Z,1.80
2023-04-12T13:36:35.527Z,1.70
2023-04-12T13:37:37.081Z,1.57
2023-04-12T13:38:38.419Z,1.40
2023-04-12T13:39:40.187Z,1.90
2023-04-12T13:40:41.616Z,1.80
2023-04-12T13:41:42.992Z,1.60
2023-04-12T13:42:44.318Z,2.10
2023-04-12T13:43:45.720Z,2.00
2023-04-12T13:44:48.569Z,1.90
2023-04-12T13:45:50.746Z,1.97
2023-04-12T13:46:52.144Z,2.00
2023-04-12T13:47:53.445Z,2.00
2023-04-12T13:48:54.926Z,1.80
2023-04-12T13:49:56.292Z,1.90
2023-04-12T13:50:58.375Z,1.80
2023-04-12T13:51:59.758Z,2.10
2023-04-12T13:53:01.421Z,2.00
2023-04-12T13:54:02.913Z,1.80
2023-04-12T13:55:08.103Z,1.90
2023-04-12T13:56:10.706Z,2.00
2023-04-12T13:57:12.099Z,2.10
2023-04-12T13:58:13.432Z,2.40
2023-04-12T13:59:14.811Z,3.10
2023-04-12T14:00:16.500Z,4.17
2023-04-12T14:01:18.404Z,4.93
2023-04-12T14:02:19.881Z,5.50
2023-04-12T14:03:22.329Z,4.87
2023-04-12T14:04:26.410Z,3.63
2023-04-12T14:05:27.762Z,3.20
2023-04-12T14:06:29.986Z,2.67
2023-04-12T14:07:31.370Z,2.40
2023-04-12T14:08:33.265Z,2.47
2023-04-12T14:09:34.608Z,2.77
2023-04-12T14:10:35.957Z,2.20
2023-04-12T14:11:47.383Z,2.67
2023-04-12T14:12:48.707Z,2.27
2023-04-12T14:13:50.187Z,3.80